Time;durP1;ratioP1;P1;durP2;ratioP2;P2;SDS_P1;SDS_P2;PMS_P1;PMS_P2;Temp;Humidity;BMP_temperature;BMP_pressure;BME280_temperature;BME280_humidity;BME280_pressure;Samples;Min_cycle;Max_cycle;Signal;HPM_P1;HPM_P2
2022/07/24 00:01:50;;;;;;;11.93;10.27;;;20.40;99.90;;;;;;5034285;28;20969;-84
2022/07/24 00:04:16;;;;;;;14.00;10.93;;;20.30;99.90;;;;;;5016086;28;20201;-84
2022/07/24 00:06:42;;;;;;;14.27;12.17;;;20.20;99.90;;;;;;5018026;28;20329;-85
2022/07/24 00:09:08;;;;;;;13.67;10.50;;;20.30;99.90;;;;;;5044706;28;20184;-83
2022/07/24 00:11:33;;;;;;;11.77;10.10;;;20.30;99.90;;;;;;5046307;28;20963;-81
2022/07/24 00:13:59;;;;;;;11.10;9.93;;;20.30;99.90;;;;;;5024684;28;21552;-84
2022/07/24 00:16:25;;;;;;;11.97;10.77;;;20.20;99.90;;;;;;5024725;28;21243;-84
2022/07/24 00:18:50;;;;;;;17.20;11.40;;;20.20;99.90;;;;;;5021416;28;20196;-83
2022/07/24 00:21:16;;;;;;;16.50;11.80;;;20.10;99.90;;;;;;5044581;28;20216;-83
2022/07/24 00:23:42;;;;;;;13.87;10.93;;;20.10;99.90;;;;;;5026042;28;20193;-85
2022/07/24 00:26:09;;;;;;;14.50;10.73;;;20.00;99.90;;;;;;5047804;28;20194;-84
2022/07/24 00:28:34;;;;;;;12.97;10.43;;;20.00;99.90;;;;;;5047127;28;20442;-86
2022/07/24 00:31:00;;;;;;;13.43;9.97;;;20.00;99.90;;;;;;5046271;28;20435;-84
2022/07/24 00:33:26;;;;;;;13.70;10.23;;;;;;;;;;5018271;28;20584;-86
2022/07/24 00:35:51;;;;;;;10.07;9.07;;;20.00;99.90;;;;;;5050814;28;20197;-86
2022/07/24 00:38:17;;;;;;;11.10;9.40;;;20.10;99.90;;;;;;5046058;28;20493;-89
2022/07/24 00:40:43;;;;;;;10.70;9.60;;;;;;;;;;5040105;28;20169;-88
2022/07/24 00:43:09;;;;;;;12.40;10.73;;;;;;;;;;5055321;28;20625;-86
2022/07/24 00:45:34;;;;;;;13.73;9.90;;;20.10;99.90;;;;;;5037920;28;20467;-86
2022/07/24 00:48:00;;;;;;;11.37;10.17;;;20.20;99.90;;;;;;5038620;28;20399;-86
2022/07/24 00:50:26;;;;;;;10.43;9.40;;;19.80;99.90;;;;;;5067692;28;20192;-89
2022/07/24 00:52:52;;;;;;;12.23;10.17;;;;;;;;;;5057235;28;20180;-89
2022/07/24 00:55:20;;;;;;;11.57;9.40;;;19.70;99.90;;;;;;5057755;28;20459;-87
2022/07/24 00:57:48;;;;;;;10.90;9.70;;;19.70;99.90;;;;;;5036196;28;20439;-83
2022/07/24 01:00:15;;;;;;;13.17;10.20;;;19.70;99.90;;;;;;5037855;28;20435;-83
2022/07/24 01:02:41;;;;;;;13.23;10.30;;;19.60;99.90;;;;;;5012909;28;20783;-81
2022/07/24 01:05:09;;;;;;;12.10;9.83;;;19.70;99.90;;;;;;5035294;28;20509;-84
2022/07/24 01:07:35;;;;;;;12.07;10.73;;;19.60;99.90;;;;;;5056121;22;20506;-84
2022/07/24 01:10:01;;;;;;;12.60;10.03;;;19.50;99.90;;;;;;5039347;28;20454;-82
2022/07/24 01:12:26;;;;;;;10.73;9.60;;;19.50;99.90;;;;;;5069306;28;21047;-84
2022/07/24 01:14:52;;;;;;;10.83;8.87;;;19.50;99.90;;;;;;5049664;28;20433;-84
2022/07/24 01:17:19;;;;;;;10.63;9.63;;;19.60;99.90;;;;;;5063130;28;20214;-85
2022/07/24 01:19:44;;;;;;;10.90;9.80;;;20.30;99.90;;;;;;5062345;28;20433;-82
2022/07/24 01:22:10;;;;;;;12.70;9.17;;;19.40;99.90;;;;;;5060714;28;20853;-82
2022/07/24 01:24:36;;;;;;;11.30;9.63;;;19.20;99.90;;;;;;5049710;28;20229;-84
2022/07/24 01:27:01;;;;;;;12.37;10.27;;;19.10;99.90;;;;;;5055492;28;20631;-85
2022/07/24 01:29:27;;;;;;;10.80;9.70;;;19.10;99.90;;;;;;5050951;28;20425;-85
2022/07/24 01:31:52;;;;;;;11.47;9.00;;;19.00;99.90;;;;;;5032891;28;20310;-85
2022/07/24 01:34:18;;;;;;;10.83;9.73;;;21.20;99.90;;;;;;5051619;28;20194;-87
2022/07/24 01:36:43;;;;;;;11.17;9.83;;;19.00;99.90;;;;;;5044978;28;20193;-84
2022/07/24 01:39:09;;;;;;;11.80;10.00;;;19.00;99.90;;;;;;5043650;28;20573;-88
2022/07/24 01:41:35;;;;;;;12.57;10.23;;;19.00;99.90;;;;;;5052427;28;20175;-87
2022/07/24 01:44:00;;;;;;;12.40;9.87;;;18.90;99.90;;;;;;5048165;28;20884;-84
2022/07/24 01:46:26;;;;;;;9.57;8.57;;;18.90;99.90;;;;;;5051890;28;20172;-87
2022/07/24 01:48:52;;;;;;;12.47;10.07;;;18.80;99.90;;;;;;5064408;28;20751;-88
2022/07/24 01:51:17;;;;;;;12.47;10.87;;;18.80;99.90;;;;;;5046074;28;20188;-88
2022/07/24 01:53:43;;;;;;;12.27;9.50;;;18.80;99.90;;;;;;5057604;28;20257;-88
2022/07/24 01:56:08;;;;;;;17.00;10.07;;;18.80;99.90;;;;;;5055484;28;20184;-87
2022/07/24 01:58:34;;;;;;;11.30;10.10;;;18.90;99.90;;;;;;5077615;28;20208;-85
2022/07/24 02:00:59;;;;;;;19.30;10.50;;;18.80;99.90;;;;;;5059169;28;20188;-87
2022/07/24 02:03:25;;;;;;;11.57;9.70;;;18.70;99.90;;;;;;5054607;28;20180;-84
2022/07/24 02:05:50;;;;;;;18.30;11.23;;;18.70;99.90;;;;;;5056029;28;20831;-86
2022/07/24 02:08:16;;;;;;;12.80;10.33;;;18.70;99.90;;;;;;5062087;28;20262;-87
2022/07/24 02:10:42;;;;;;;12.40;11.10;;;18.60;99.90;;;;;;5052241;28;20189;-86
2022/07/24 02:13:07;;;;;;;16.23;11.47;;;18.50;99.90;;;;;;5065431;28;20180;-88
2022/07/24 02:15:33;;;;;;;12.77;10.57;;;18.40;99.90;;;;;;5066983;28;20274;-88
2022/07/24 02:18:00;;;;;;;14.83;10.60;;;18.40;99.90;;;;;;5050904;28;20946;-88
2022/07/24 02:20:27;;;;;;;12.23;10.43;;;18.40;99.90;;;;;;5050371;28;20237;-86
2022/07/24 02:22:53;;;;;;;13.53;10.73;;;18.40;99.90;;;;;;5037800;28;21145;-89
2022/07/24 02:25:19;;;;;;;15.93;11.90;;;18.10;99.90;;;;;;5014151;28;20474;-86
2022/07/24 02:27:45;;;;;;;15.43;10.73;;;18.30;99.90;;;;;;5006654;28;20201;-88
2022/07/24 02:30:17;;;;;;;16.73;10.10;;;18.30;99.90;;;;;;5030181;28;20438;-89
2022/07/24 02:32:43;;;;;;;14.70;10.33;;;18.20;99.90;;;;;;5029239;28;20437;-89
2022/07/24 02:35:09;;;;;;;14.30;10.63;;;18.20;99.90;;;;;;5048639;28;20762;-88
2022/07/24 02:37:43;;;;;;;13.47;10.73;;;19.80;99.90;;;;;;5060596;28;20215;-89
2022/07/24 02:40:10;;;;;;;11.30;10.10;;;18.20;99.90;;;;;;5044474;28;20441;-89
2022/07/24 02:42:37;;;;;;;13.33;11.20;;;18.20;99.90;;;;;;5067502;28;20479;-88
2022/07/24 02:45:04;;;;;;;13.37;10.50;;;18.70;99.90;;;;;;5062056;28;20458;-89
2022/07/24 02:47:30;;;;;;;12.30;10.50;;;18.20;99.90;;;;;;5058177;28;20561;-89
2022/07/24 02:49:55;;;;;;;12.63;11.07;;;18.20;99.90;;;;;;5062583;28;20430;-89
2022/07/24 02:52:21;;;;;;;14.33;10.77;;;;;;;;;;5080333;28;20187;-89
2022/07/24 02:54:47;;;;;;;14.60;10.50;;;;;;;;;;5087194;28;20196;-89
2022/07/24 02:57:13;;;;;;;14.10;10.63;;;;;;;;;;5095459;28;20471;-88
2022/07/24 02:59:39;;;;;;;13.23;11.93;;;;;;;;;;5074345;28;20451;-89
2022/07/24 03:02:04;;;;;;;11.90;10.27;;;17.80;99.90;;;;;;5090680;28;20462;-88
2022/07/24 03:04:30;;;;;;;12.80;10.70;;;17.80;99.90;;;;;;5078199;28;20474;-89
2022/07/24 03:06:55;;;;;;;14.07;11.23;;;17.80;99.90;;;;;;5090569;28;20171;-89
2022/07/24 03:09:21;;;;;;;14.77;10.50;;;17.80;99.90;;;;;;5078132;28;20258;-89
2022/07/24 03:11:46;;;;;;;12.80;10.30;;;17.60;99.90;;;;;;5067492;28;20568;-89
2022/07/24 03:14:12;;;;;;;13.73;10.90;;;17.70;99.90;;;;;;5086912;28;20172;-89
2022/07/24 03:16:38;;;;;;;12.60;10.43;;;17.80;99.90;;;;;;5065747;28;20203;-87
2022/07/24 03:19:03;;;;;;;13.80;11.67;;;17.70;99.90;;;;;;5075804;28;20213;-88
2022/07/24 03:21:29;;;;;;;12.90;10.43;;;17.60;99.90;;;;;;5052853;28;20191;-85
2022/07/24 03:23:54;;;;;;;11.90;10.70;;;17.70;99.90;;;;;;5070176;28;20180;-86
2022/07/24 03:26:20;;;;;;;13.40;10.73;;;17.70;99.90;;;;;;5047465;28;20182;-85
2022/07/24 03:28:45;;;;;;;14.97;11.07;;;17.70;99.90;;;;;;5056666;28;20208;-84
2022/07/24 03:31:12;;;;;;;18.50;12.20;;;17.70;99.90;;;;;;5041562;28;20216;-85
2022/07/24 03:33:37;;;;;;;13.70;11.07;;;20.10;99.90;;;;;;5058595;28;21104;-84
2022/07/24 03:36:03;;;;;;;12.23;10.83;;;17.80;99.90;;;;;;5053380;28;20684;-85
2022/07/24 03:38:29;;;;;;;12.70;11.07;;;17.80;99.90;;;;;;5071707;28;20200;-86
2022/07/24 03:40:54;;;;;;;11.60;10.37;;;17.80;99.90;;;;;;5054474;28;20273;-86
2022/07/24 03:43:20;;;;;;;13.67;10.13;;;17.70;99.90;;;;;;5076858;28;20185;-86
2022/07/24 03:45:45;;;;;;;11.90;10.00;;;17.30;99.90;;;;;;5072603;28;20197;-87
2022/07/24 03:48:11;;;;;;;12.73;11.07;;;17.70;99.90;;;;;;5061324;28;20207;-87
2022/07/24 03:50:37;;;;;;;15.20;11.27;;;;;;;;;;5083191;28;20184;-86
2022/07/24 03:53:02;;;;;;;11.73;10.40;;;17.70;99.90;;;;;;5073561;28;20878;-87
2022/07/24 03:55:28;;;;;;;15.57;11.80;;;;;;;;;;5074932;28;20434;-86
2022/07/24 03:57:54;;;;;;;15.60;10.87;;;17.50;99.90;;;;;;5071703;28;20196;-86
2022/07/24 04:00:20;;;;;;;13.80;10.77;;;;;;;;;;5078698;28;20446;-85
2022/07/24 04:02:46;;;;;;;11.97;10.70;;;17.50;99.90;;;;;;5061944;28;20230;-85
2022/07/24 04:05:13;;;;;;;12.20;10.90;;;17.60;99.90;;;;;;5082705;28;20901;-85
2022/07/24 04:07:39;;;;;;;12.03;10.20;;;;;;;;;;5078523;28;20472;-85
2022/07/24 04:10:07;;;;;;;11.20;10.00;;;17.70;99.90;;;;;;5064668;28;20437;-84
2022/07/24 04:12:33;;;;;;;13.70;10.43;;;17.70;99.90;;;;;;5065880;28;20432;-85
2022/07/24 04:14:58;;;;;;;11.77;9.80;;;17.50;99.90;;;;;;5080468;28;20430;-86
2022/07/24 04:17:24;;;;;;;20.80;11.10;;;20.90;99.90;;;;;;5087420;28;20469;-89
2022/07/24 04:19:50;;;;;;;11.00;9.87;;;18.00;99.90;;;;;;5073637;28;20184;-87
2022/07/24 04:22:15;;;;;;;13.57;11.80;;;18.10;99.90;;;;;;5081047;28;20180;-84
2022/07/24 04:24:41;;;;;;;12.40;10.33;;;18.30;99.90;;;;;;5073815;28;20241;-85
2022/07/24 04:27:06;;;;;;;11.67;10.47;;;18.50;99.90;;;;;;5056859;28;20185;-84
2022/07/24 04:29:32;;;;;;;10.00;9.00;;;18.60;99.90;;;;;;5073596;28;20227;-84
2022/07/24 04:31:58;;;;;;;11.10;9.37;;;18.80;99.90;;;;;;5076667;28;20247;-84
2022/07/24 04:34:23;;;;;;;11.23;9.70;;;19.00;99.90;;;;;;5077112;28;20206;-88
2022/07/24 04:36:49;;;;;;;11.33;9.77;;;19.50;99.90;;;;;;5064718;28;20188;-88
2022/07/24 04:39:14;;;;;;;10.97;9.40;;;20.60;99.90;;;;;;5077348;28;20212;-88
2022/07/24 04:41:40;;;;;;;11.60;9.07;;;22.00;99.90;;;;;;5065538;28;20196;-87
2022/07/24 04:44:06;;;;;;;9.50;8.50;;;23.70;99.90;;;;;;5085020;28;20229;-87
2022/07/24 04:46:33;;;;;;;9.93;8.93;;;24.60;99.90;;;;;;5065936;28;20196;-88
2022/07/24 04:48:58;;;;;;;11.63;8.50;;;26.10;99.90;;;;;;5075203;28;20493;-88
2022/07/24 04:51:24;;;;;;;8.07;7.27;;;;;;;;;;5077370;28;20176;-87
2022/07/24 04:53:52;;;;;;;10.73;7.80;;;;;;;;;;5067581;28;20181;-85
2022/07/24 04:56:19;;;;;;;8.23;7.27;;;29.90;99.90;;;;;;5067588;28;20427;-86
2022/07/24 04:58:44;;;;;;;9.70;8.00;;;31.10;99.90;;;;;;5074832;28;20950;-87
2022/07/24 05:01:10;;;;;;;8.63;7.83;;;31.60;99.90;;;;;;5058724;28;20435;-87
2022/07/24 05:03:35;;;;;;;8.03;7.23;;;31.90;99.90;;;;;;5065827;28;20179;-87
2022/07/24 05:06:01;;;;;;;8.77;7.70;;;32.80;99.80;;;;;;5075228;28;20251;-85
2022/07/24 05:08:27;;;;;;;9.03;7.60;;;;;;;;;;5072549;28;20307;-86
2022/07/24 05:10:52;;;;;;;8.27;7.47;;;34.80;93.60;;;;;;5079161;28;20181;-86
2022/07/24 05:13:19;;;;;;;10.17;9.27;;;;;;;;;;5076633;28;20437;-87
2022/07/24 05:15:44;;;;;;;9.90;8.70;;;;;;;;;;5068147;28;20277;-87
2022/07/24 05:18:10;;;;;;;10.30;8.90;;;36.20;82.70;;;;;;5087458;28;20490;-90
2022/07/24 05:20:36;;;;;;;14.27;9.37;;;;;;;;;;5089437;28;20443;-88
2022/07/24 05:23:02;;;;;;;10.80;9.80;;;;;;;;;;5050502;28;20178;-84
2022/07/24 05:25:28;;;;;;;11.27;10.17;;;;;;;;;;5086392;28;20512;-90
2022/07/24 05:27:54;;;;;;;12.20;11.00;;;;;;;;;;5074278;28;20480;-92
2022/07/24 05:30:20;;;;;;;14.07;12.10;;;;;;;;;;5074621;28;20437;-91
2022/07/24 05:32:46;;;;;;;14.53;13.43;;;;;;;;;;5089083;28;20501;-90
2022/07/24 05:35:12;;;;;;;14.67;13.47;;;;;;;;;;5068709;28;20489;-90
2022/07/24 05:37:38;;;;;;;15.40;14.20;;;;;;;;;;5082462;28;20432;-90
2022/07/24 05:40:05;;;;;;;16.60;15.50;;;40.40;52.60;;;;;;5078591;28;20419;-89
2022/07/24 05:42:31;;;;;;;16.87;15.77;;;;;;;;;;5068712;28;20411;-90
2022/07/24 05:44:56;;;;;;;16.83;15.50;;;;;;;;;;5075203;28;20544;-88
2022/07/24 05:47:25;;;;;;;16.77;15.37;;;38.30;55.60;;;;;;5067902;28;20441;-89
2022/07/24 05:49:51;;;;;;;17.57;16.27;;;;;;;;;;5078888;28;20226;-88
2022/07/24 05:52:17;;;;;;;18.13;16.83;;;;;;;;;;5068010;28;20422;-90
2022/07/24 05:54:43;;;;;;;17.10;15.80;;;;;;;;;;5074492;28;20555;-89
2022/07/24 05:57:09;;;;;;;18.17;16.80;;;;;;;;;;5066201;28;20568;-89
2022/07/24 05:59:35;;;;;;;18.57;17.07;;;;;;;;;;5062500;28;20430;-89
2022/07/24 06:02:03;;;;;;;17.67;16.37;;;41.00;51.90;;;;;;5056704;28;20482;-87
2022/07/24 06:04:29;;;;;;;18.43;16.83;;;;;;;;;;5070401;28;20484;-86
2022/07/24 06:06:55;;;;;;;18.43;17.10;;;;;;;;;;5046104;28;20460;-88
2022/07/24 06:09:21;;;;;;;19.13;17.73;;;38.30;54.30;;;;;;5061959;28;20462;-89
2022/07/24 06:11:46;;;;;;;19.00;17.70;;;39.30;55.60;;;;;;5062823;28;20180;-89
2022/07/24 06:14:12;;;;;;;19.83;18.03;;;38.70;54.10;;;;;;5055448;28;20834;-89
2022/07/24 06:16:38;;;;;;;18.33;17.03;;;;;;;;;;5078587;28;20973;-89
2022/07/24 06:19:04;;;;;;;19.47;17.93;;;;;;;;;;5057575;28;20243;-87
2022/07/24 06:21:30;;;;;;;19.40;17.50;;;;;;;;;;5046064;28;20527;-90
2022/07/24 06:23:56;;;;;;;20.33;18.47;;;;;;;;;;5049340;28;20502;-90
2022/07/24 06:26:22;;;;;;;20.23;18.93;;;43.50;47.00;;;;;;5065614;28;20445;-90
2022/07/24 06:28:48;;;;;;;20.27;18.83;;;;;;;;;;5060394;28;20452;-88
2022/07/24 06:31:14;;;;;;;20.60;19.10;;;;;;;;;;5074748;28;20431;-87
2022/07/24 06:33:40;;;;;;;22.47;20.23;;;;;;;;;;5067283;28;20239;-86
2022/07/24 06:36:06;;;;;;;21.80;20.30;;;45.70;41.40;;;;;;5069057;28;20433;-89
2022/07/24 06:38:32;;;;;;;26.33;24.03;;;;;;;;;;5052335;28;20512;-89
2022/07/24 06:40:58;;;;;;;24.70;22.60;;;44.20;41.70;;;;;;5045994;28;20442;-88
2022/07/24 06:43:23;;;;;;;21.43;20.00;;;43.50;42.60;;;;;;5068761;28;20263;-91
2022/07/24 06:45:50;;;;;;;24.13;22.40;;;42.90;44.10;;;;;;5054813;28;20617;-90
2022/07/24 06:48:16;;;;;;;23.23;21.57;;;;;;;;;;5057720;28;20191;-91
2022/07/24 06:50:41;;;;;;;21.07;19.67;;;42.70;43.80;;;;;;5055165;28;20435;-89
2022/07/24 06:53:07;;;;;;;22.77;21.27;;;;;;;;;;5052086;28;20479;-88
2022/07/24 06:55:33;;;;;;;23.00;21.40;;;;;;;;;;5070410;28;20180;-89
2022/07/24 06:57:59;;;;;;;22.90;20.80;;;;;;;;;;5067549;28;20489;-87
2022/07/24 07:00:25;;;;;;;22.77;21.23;;;44.30;41.60;;;;;;5052821;28;20192;-84
2022/07/24 07:02:50;;;;;;;22.03;20.63;;;44.80;41.40;;;;;;5063039;28;20733;-88
2022/07/24 07:05:16;;;;;;;21.33;20.03;;;;;;;;;;5062306;28;20577;-87
2022/07/24 07:07:43;;;;;;;22.40;20.30;;;;;;;;;;5067647;22;20192;-88
2022/07/24 07:10:09;;;;;;;21.83;20.03;;;45.10;39.50;;;;;;5001396;28;20189;-88
2022/07/24 07:12:35;;;;;;;23.13;21.53;;;45.10;41.50;;;;;;5002608;28;20979;-87
2022/07/24 07:15:01;;;;;;;22.57;20.57;;;43.70;40.10;;;;;;4991259;28;20463;-88
2022/07/24 07:17:27;;;;;;;21.17;19.77;;;42.60;42.10;;;;;;4987741;28;20475;-86
2022/07/24 07:19:52;;;;;;;20.50;19.27;;;41.50;42.40;;;;;;5004824;28;20523;-88
2022/07/24 07:22:18;;;;;;;19.67;18.23;;;42.30;41.40;;;;;;4995172;28;20266;-88
2022/07/24 07:24:44;;;;;;;19.67;18.27;;;;;;;;;;5001649;28;20440;-88
2022/07/24 07:27:09;;;;;;;19.60;18.30;;;42.10;41.30;;;;;;5005705;28;20744;-88
2022/07/24 07:29:35;;;;;;;19.37;18.17;;;42.40;41.90;;;;;;5004395;28;20224;-90
2022/07/24 07:32:00;;;;;;;19.17;18.00;;;42.50;40.60;;;;;;5008034;28;20189;-89
2022/07/24 07:34:26;;;;;;;19.97;18.77;;;41.50;41.20;;;;;;5003217;28;20211;-89
2022/07/24 07:36:52;;;;;;;19.03;17.80;;;41.40;42.10;;;;;;5000793;28;20182;-87
2022/07/24 07:39:18;;;;;;;20.67;19.27;;;42.50;41.40;;;;;;4999925;28;20315;-86
2022/07/24 07:41:44;;;;;;;20.30;19.00;;;;;;;;;;5003015;28;20432;-89
2022/07/24 07:44:10;;;;;;;20.53;19.13;;;44.60;39.00;;;;;;5001392;28;20215;-88
2022/07/24 07:46:36;;;;;;;21.23;19.93;;;;;;;;;;5003672;28;20460;-87
2022/07/24 07:49:02;;;;;;;22.70;21.30;;;;;;;;;;4995864;28;20240;-88
2022/07/24 07:51:27;;;;;;;24.37;22.77;;;45.90;37.50;;;;;;4997219;28;20453;-88
2022/07/24 07:53:53;;;;;;;22.97;21.57;;;;;;;;;;4994839;28;20850;-88
2022/07/24 07:56:20;;;;;;;23.87;22.37;;;44.60;36.40;;;;;;4986297;28;20255;-88
2022/07/24 07:58:45;;;;;;;21.17;19.87;;;42.30;38.80;;;;;;4984114;28;20174;-87
2022/07/24 08:01:11;;;;;;;21.30;19.90;;;40.80;41.90;;;;;;5007466;28;20448;-87
2022/07/24 08:03:37;;;;;;;20.13;18.83;;;40.50;42.60;;;;;;5006653;28;20201;-89
2022/07/24 08:06:03;;;;;;;19.80;18.50;;;42.70;41.30;;;;;;4999750;28;20217;-87
2022/07/24 08:08:29;;;;;;;20.23;19.00;;;41.40;41.00;;;;;;5000844;28;20658;-88
2022/07/24 08:10:55;;;;;;;20.27;18.97;;;41.00;42.00;;;;;;5001484;28;20486;-87
2022/07/24 08:13:21;;;;;;;19.93;18.73;;;;;;;;;;5002804;28;20303;-87
2022/07/24 08:15:46;;;;;;;20.67;19.47;;;44.10;38.90;;;;;;4998007;28;20196;-89
2022/07/24 08:18:12;;;;;;;21.57;19.50;;;43.80;38.30;;;;;;4992623;28;20440;-88
2022/07/24 08:20:38;;;;;;;22.13;20.23;;;;;;;;;;5005682;28;20304;-89
2022/07/24 08:23:04;;;;;;;20.30;18.87;;;;;;;;;;5004020;28;20209;-89
2022/07/24 08:25:29;;;;;;;21.17;19.53;;;42.10;39.70;;;;;;5019553;22;20494;-85
2022/07/24 08:27:55;;;;;;;21.17;19.87;;;41.90;39.60;;;;;;4968162;28;20574;-85
2022/07/24 08:30:21;;;;;;;21.27;19.83;;;41.80;40.40;;;;;;4982795;28;20189;-83
2022/07/24 08:32:47;;;;;;;22.30;20.80;;;42.50;39.60;;;;;;4984596;28;20203;-83
2022/07/24 08:35:14;;;;;;;22.37;20.60;;;43.00;38.30;;;;;;4969697;28;20535;-85
2022/07/24 08:37:41;;;;;;;20.73;19.63;;;42.10;38.90;;;;;;4975067;28;20286;-86
2022/07/24 08:40:08;;;;;;;19.70;18.50;;;40.90;39.40;;;;;;4970477;28;20894;-85
2022/07/24 08:42:35;;;;;;;21.70;20.30;;;41.30;41.40;;;;;;4977891;28;21006;-83
2022/07/24 08:45:00;;;;;;;19.83;18.53;;;40.80;42.10;;;;;;4973977;28;20474;-84
2022/07/24 08:47:27;;;;;;;20.97;19.67;;;40.50;40.90;;;;;;4974465;28;20435;-83
2022/07/24 08:49:54;;;;;;;19.40;18.10;;;40.70;41.70;;;;;;4962658;28;20179;-85
2022/07/24 08:52:23;;;;;;;20.50;19.10;;;40.60;41.50;;;;;;4964678;28;20563;-85
2022/07/24 08:54:49;;;;;;;20.07;18.67;;;40.90;42.50;;;;;;4978200;28;20901;-84
2022/07/24 08:57:15;;;;;;;19.53;18.33;;;41.40;40.70;;;;;;4971421;28;20466;-83
2022/07/24 08:59:40;;;;;;;19.80;18.67;;;40.90;41.80;;;;;;4972114;28;20298;-83
2022/07/24 09:02:06;;;;;;;19.23;17.83;;;40.70;42.20;;;;;;4984875;28;20555;-85
2022/07/24 09:04:39;;;;;;;20.07;18.87;;;42.10;40.60;;;;;;4972997;28;20298;-86
2022/07/24 09:07:11;;;;;;;19.90;18.60;;;42.30;39.70;;;;;;4979431;28;20775;-84
2022/07/24 09:09:42;;;;;;;19.67;18.47;;;41.90;39.80;;;;;;4971464;28;20462;-83
2022/07/24 09:12:17;;;;;;;20.10;18.90;;;42.60;40.10;;;;;;4966015;28;20442;-84
2022/07/24 09:14:45;;;;;;;21.03;19.63;;;41.70;40.20;;;;;;4974831;28;20456;-84
2022/07/24 09:17:14;;;;;;;21.80;20.10;;;41.70;40.70;;;;;;4967015;28;20442;-86
2022/07/24 09:19:51;;;;;;;21.23;19.83;;;42.10;39.80;;;;;;4972556;28;20693;-85
2022/07/24 09:22:35;;;;;;;20.67;19.17;;;39.50;41.60;;;;;;4969444;28;20476;-85
2022/07/24 09:25:09;;;;;;;20.70;19.50;;;39.20;44.40;;;;;;4973418;28;20477;-84
2022/07/24 09:27:38;;;;;;;21.10;19.80;;;40.40;43.40;;;;;;4971676;28;21063;-85
2022/07/24 09:30:05;;;;;;;20.50;19.10;;;42.10;40.90;;;;;;4968256;28;20443;-84
2022/07/24 09:32:31;;;;;;;20.00;18.80;;;42.10;39.50;;;;;;4974436;28;20438;-86
2022/07/24 09:34:57;;;;;;;19.27;17.90;;;42.30;40.30;;;;;;4971431;28;20442;-84
2022/07/24 09:37:25;;;;;;;19.53;18.13;;;38.40;42.60;;;;;;4959268;28;20222;-84
2022/07/24 09:39:51;;;;;;;19.40;17.93;;;38.40;43.10;;;;;;4982137;28;20188;-84
2022/07/24 09:42:17;;;;;;;21.30;19.70;;;36.60;44.60;;;;;;4954748;28;20821;-85
2022/07/24 09:44:43;;;;;;;20.30;18.80;;;36.50;45.60;;;;;;4952832;28;20204;-84
2022/07/24 09:47:10;;;;;;;19.10;17.87;;;36.70;45.60;;;;;;4954298;28;20772;-83
2022/07/24 09:49:37;;;;;;;18.47;17.23;;;38.40;44.50;;;;;;4961123;28;20757;-83
2022/07/24 09:52:14;;;;;;;18.03;16.93;;;39.20;43.30;;;;;;4971886;28;20465;-83
2022/07/24 09:54:42;;;;;;;19.80;18.33;;;39.40;42.00;;;;;;4975642;28;20428;-84
2022/07/24 09:57:25;;;;;;;21.07;19.57;;;40.50;41.90;;;;;;4962590;28;20454;-83
2022/07/24 09:59:53;;;;;;;20.30;18.93;;;41.90;39.80;;;;;;4969775;28;20445;-84
2022/07/24 10:02:21;;;;;;;20.37;18.90;;;40.00;41.10;;;;;;4973743;28;20434;-84
2022/07/24 10:04:49;;;;;;;19.80;18.60;;;39.90;40.60;;;;;;4967758;28;21013;-83
2022/07/24 10:07:18;;;;;;;21.07;19.57;;;38.90;41.30;;;;;;4967066;28;20925;-83
2022/07/24 10:09:50;;;;;;;19.97;18.50;;;36.60;43.40;;;;;;4964220;28;20434;-82
2022/07/24 10:12:17;;;;;;;19.07;17.67;;;36.30;44.60;;;;;;4966648;28;20439;-82
2022/07/24 10:14:45;;;;;;;19.53;18.17;;;38.00;43.70;;;;;;4971442;28;20491;-83
2022/07/24 10:17:12;;;;;;;18.67;17.50;;;37.60;42.70;;;;;;4972260;28;20437;-83
2022/07/24 10:19:49;;;;;;;18.60;17.30;;;35.40;44.40;;;;;;4969658;28;20589;-84
2022/07/24 10:22:17;;;;;;;16.73;15.53;;;34.30;46.20;;;;;;4974701;28;20532;-83
2022/07/24 10:24:58;;;;;;;18.07;16.77;;;34.30;46.60;;;;;;4971026;28;20887;-82
2022/07/24 10:27:35;;;;;;;18.30;16.70;;;35.60;45.50;;;;;;4970625;28;20926;-85
2022/07/24 10:30:05;;;;;;;18.27;17.00;;;35.70;46.00;;;;;;4976021;28;20796;-83
2022/07/24 10:32:32;;;;;;;17.07;15.83;;;36.20;44.90;;;;;;4977149;28;20808;-83
2022/07/24 10:35:15;;;;;;;16.77;15.57;;;36.60;44.00;;;;;;4976966;28;20439;-83
2022/07/24 10:37:56;;;;;;;16.50;15.40;;;36.20;43.30;;;;;;4973580;28;20796;-83
2022/07/24 10:40:42;;;;;;;15.30;14.40;;;35.60;42.90;;;;;;4984651;28;20501;-83
2022/07/24 10:43:08;;;;;;;15.93;14.70;;;34.90;43.60;;;;;;4969823;28;20891;-83
2022/07/24 10:45:35;;;;;;;15.60;14.50;;;34.30;45.20;;;;;;4991840;28;20539;-83
2022/07/24 10:48:19;;;;;;;15.80;14.53;;;34.40;45.20;;;;;;4975800;28;20814;-83
2022/07/24 10:50:57;;;;;;;15.53;14.53;;;34.40;45.70;;;;;;4987958;28;20495;-84
2022/07/24 10:53:24;;;;;;;15.37;14.33;;;34.20;46.60;;;;;;4976324;28;20960;-84
2022/07/24 10:55:51;;;;;;;15.90;14.80;;;33.60;47.50;;;;;;4981761;28;20523;-84
2022/07/24 10:58:17;;;;;;;15.90;14.70;;;33.30;47.90;;;;;;4969654;28;20466;-84
2022/07/24 11:00:45;;;;;;;15.60;14.23;;;32.50;48.50;;;;;;4978496;28;20882;-83
2022/07/24 11:03:24;;;;;;;14.57;13.20;;;32.30;49.40;;;;;;4973964;28;20442;-84
2022/07/24 11:06:10;;;;;;;16.00;14.60;;;32.50;48.60;;;;;;4978442;28;20465;-84
2022/07/24 11:08:40;;;;;;;14.40;13.33;;;31.90;48.80;;;;;;4967799;28;20461;-83
2022/07/24 11:11:18;;;;;;;13.60;12.30;;;31.50;50.00;;;;;;4966732;28;20448;-82
2022/07/24 11:13:46;;;;;;;13.60;12.70;;;31.50;50.40;;;;;;4978056;28;21011;-84
2022/07/24 11:16:11;;;;;;;16.43;14.80;;;31.60;50.50;;;;;;4983737;28;20506;-83
2022/07/24 11:18:42;;;;;;;13.27;11.93;;;31.30;49.80;;;;;;4978054;28;20478;-84
2022/07/24 11:21:08;;;;;;;12.90;11.80;;;31.80;51.00;;;;;;4968300;28;20281;-84
2022/07/24 11:23:34;;;;;;;12.50;11.60;;;32.20;49.20;;;;;;4975095;28;20442;-83
2022/07/24 11:26:31;;;;;;;13.40;12.30;;;32.20;50.00;;;;;;4984285;28;20476;-85
2022/07/24 11:29:17;;;;;;;13.33;12.13;;;31.90;49.60;;;;;;4981071;28;20461;-84
2022/07/24 11:31:47;;;;;;;13.60;12.50;;;32.30;50.10;;;;;;4973590;28;20448;-85
2022/07/24 11:34:12;;;;;;;14.93;13.60;;;32.40;49.60;;;;;;4976405;28;20580;-84
2022/07/24 11:36:47;;;;;;;12.90;11.97;;;33.10;49.60;;;;;;4973690;28;21006;-82
2022/07/24 11:39:14;;;;;;;13.20;12.20;;;33.10;49.90;;;;;;4976539;28;20238;-82
2022/07/24 11:41:47;;;;;;;14.37;13.10;;;33.00;49.80;;;;;;4969101;28;20434;-84
2022/07/24 11:44:14;;;;;;;13.20;12.10;;;32.70;49.50;;;;;;4977665;28;20440;-82
2022/07/24 11:46:41;;;;;;;13.30;12.20;;;31.80;49.60;;;;;;4974266;28;20526;-83
2022/07/24 11:49:09;;;;;;;12.70;11.60;;;31.30;50.70;;;;;;4966258;28;20455;-84
2022/07/24 11:51:45;;;;;;;14.73;12.07;;;31.10;51.60;;;;;;4975302;28;20453;-83
2022/07/24 11:54:15;;;;;;;12.43;11.50;;;31.00;51.50;;;;;;4969461;28;20491;-84
2022/07/24 11:56:41;;;;;;;13.13;11.93;;;31.20;51.90;;;;;;4966579;28;20918;-83
2022/07/24 11:59:24;;;;;;;13.90;12.80;;;31.70;51.60;;;;;;4972496;28;20470;-84
2022/07/24 12:01:50;;;;;;;12.33;11.33;;;31.90;51.00;;;;;;4970879;28;20555;-82
2022/07/24 12:04:23;;;;;;;13.50;12.37;;;32.10;50.50;;;;;;4964638;28;20440;-83
2022/07/24 12:06:48;;;;;;;13.37;12.17;;;31.50;49.80;;;;;;4974893;28;20709;-84
2022/07/24 12:09:14;;;;;;;12.87;11.53;;;30.70;51.30;;;;;;4971582;28;20467;-84
2022/07/24 12:11:39;;;;;;;12.27;11.20;;;30.40;52.10;;;;;;4970422;28;20202;-84
2022/07/24 12:14:14;;;;;;;11.00;10.10;;;30.40;52.00;;;;;;4985756;28;20179;-83
2022/07/24 12:16:41;;;;;;;12.10;11.03;;;30.50;52.40;;;;;;4974472;28;20244;-83
2022/07/24 12:19:16;;;;;;;13.67;12.47;;;30.90;52.00;;;;;;4968474;28;20454;-83
2022/07/24 12:21:43;;;;;;;12.60;11.50;;;31.10;52.00;;;;;;4967028;28;20846;-84
2022/07/24 12:24:10;;;;;;;13.10;11.40;;;31.50;51.40;;;;;;4965258;28;20530;-84
2022/07/24 12:26:57;;;;;;;14.20;12.90;;;32.00;50.40;;;;;;4969551;28;20793;-83
2022/07/24 12:29:26;;;;;;;13.03;11.93;;;32.60;49.30;;;;;;4965482;28;20474;-83
2022/07/24 12:32:17;;;;;;;13.70;12.40;;;32.90;49.70;;;;;;4967915;28;21023;-84
2022/07/24 12:34:44;;;;;;;12.37;11.37;;;32.90;49.20;;;;;;4965179;28;20818;-83
2022/07/24 12:37:17;;;;;;;12.63;11.53;;;32.40;49.30;;;;;;4966849;28;20982;-82
2022/07/24 12:39:47;;;;;;;12.93;11.80;;;32.00;49.60;;;;;;4961049;28;20656;-83
2022/07/24 12:42:13;;;;;;;13.13;11.77;;;32.10;49.80;;;;;;4962632;28;20435;-82
2022/07/24 12:44:44;;;;;;;13.03;12.00;;;32.40;48.80;;;;;;4974489;28;20984;-83
2022/07/24 12:47:13;;;;;;;13.30;12.30;;;32.80;49.30;;;;;;4968514;28;20673;-82